Time;durP1;ratioP1;P1;durP2;ratioP2;P2;SDS_P1;SDS_P2;PMS_P1;PMS_P2;Temp;Humidity;BMP_temperature;BMP_pressure;BME280_temperature;BME280_humidity;BME280_pressure;Samples;Min_cycle;Max_cycle;Signal;HPM_P1;HPM_P2
2022/09/07 03:02:59;;;;;;;20.55;11.60;;;17.50;99.90;;;;;;6273262;22;20344;-79
2022/09/07 03:05:40;;;;;;;22.80;11.23;;;17.50;99.90;;;;;;6250107;22;20039;-79
2022/09/07 03:08:14;;;;;;;15.45;10.82;;;17.50;99.90;;;;;;6277519;22;20022;-79
2022/09/07 03:10:41;;;;;;;15.77;10.07;;;17.40;99.90;;;;;;6249940;22;20007;-76
2022/09/07 03:13:07;;;;;;;20.90;11.95;;;17.40;99.90;;;;;;6249849;22;20234;-77
2022/09/07 03:15:32;;;;;;;16.67;10.82;;;17.40;99.90;;;;;;6249935;22;20031;-77
2022/09/07 03:17:58;;;;;;;18.17;10.18;;;17.40;99.90;;;;;;6277418;22;20008;-76
2022/09/07 03:20:23;;;;;;;16.77;10.35;;;17.40;99.90;;;;;;6249864;22;20023;-79
2022/09/07 03:22:51;;;;;;;14.85;10.63;;;17.40;99.90;;;;;;6249880;22;20057;-77
2022/09/07 03:25:18;;;;;;;16.42;10.65;;;17.30;99.90;;;;;;6249815;22;20022;-79
2022/09/07 03:27:43;;;;;;;16.13;10.05;;;17.30;99.90;;;;;;6249836;22;20022;-79
2022/09/07 03:30:10;;;;;;;18.98;10.40;;;17.30;99.90;;;;;;6249877;22;20341;-76
2022/09/07 03:32:37;;;;;;;10.23;7.55;;;17.30;99.90;;;;;;6275296;22;20023;-78
2022/09/07 03:35:05;;;;;;;16.38;9.82;;;17.30;99.90;;;;;;6249960;22;20011;-79
2022/09/07 03:37:34;;;;;;;12.55;9.30;;;17.20;99.90;;;;;;6249911;22;20337;-79
2022/09/07 03:39:59;;;;;;;14.05;9.93;;;17.20;99.90;;;;;;6225206;22;20043;-78
2022/09/07 03:42:25;;;;;;;14.65;9.45;;;17.30;99.90;;;;;;6249675;22;20023;-79
2022/09/07 03:44:50;;;;;;;15.30;10.10;;;17.20;99.90;;;;;;6249894;22;20016;-78
2022/09/07 03:47:17;;;;;;;20.35;12.10;;;17.20;99.90;;;;;;6249957;22;20016;-77
2022/09/07 03:49:42;;;;;;;11.75;8.13;;;17.20;99.90;;;;;;6249810;22;20012;-77
2022/09/07 03:52:08;;;;;;;10.68;6.88;;;17.20;99.90;;;;;;6251468;22;20008;-78
2022/09/07 03:54:34;;;;;;;10.70;7.72;;;17.20;99.90;;;;;;6251857;22;20345;-80
2022/09/07 03:56:59;;;;;;;10.95;8.35;;;17.20;99.90;;;;;;6251964;22;20069;-78
2022/09/07 03:59:25;;;;;;;11.75;8.05;;;17.20;99.90;;;;;;6251800;22;20345;-79
2022/09/07 04:01:51;;;;;;;9.15;6.30;;;17.10;99.90;;;;;;6246514;22;20044;-79
2022/09/07 04:04:16;;;;;;;9.23;7.05;;;17.10;99.90;;;;;;6246552;23;20013;-79
2022/09/07 04:06:42;;;;;;;10.60;7.40;;;17.20;99.90;;;;;;6247395;23;20015;-79
2022/09/07 04:09:11;;;;;;;13.55;9.20;;;17.20;99.90;;;;;;6246621;23;20008;-78
2022/09/07 04:11:37;;;;;;;12.23;9.52;;;17.20;99.90;;;;;;6248189;22;20373;-79
2022/09/07 04:14:03;;;;;;;17.58;11.40;;;17.10;99.90;;;;;;6246785;23;20016;-77
2022/09/07 04:16:29;;;;;;;14.35;10.45;;;17.20;99.90;;;;;;6246488;23;20082;-79
2022/09/07 04:18:56;;;;;;;17.38;11.32;;;17.20;99.90;;;;;;6248488;22;20039;-79
2022/09/07 04:21:23;;;;;;;15.25;11.07;;;17.20;99.90;;;;;;6246438;22;20012;-79
2022/09/07 04:23:49;;;;;;;19.63;12.60;;;17.30;99.90;;;;;;6221035;23;20426;-76
2022/09/07 04:26:26;;;;;;;13.18;9.98;;;17.20;99.90;;;;;;6246779;23;20091;-79
2022/09/07 04:28:53;;;;;;;13.23;10.73;;;17.20;99.90;;;;;;6248449;22;20087;-76
2022/09/07 04:31:20;;;;;;;15.93;11.38;;;17.10;99.90;;;;;;6246339;22;20457;-79
2022/09/07 04:33:47;;;;;;;19.10;12.35;;;17.20;99.90;;;;;;6246460;23;20066;-79
2022/09/07 04:36:14;;;;;;;13.82;10.52;;;17.20;99.90;;;;;;6246426;23;20346;-79
2022/09/07 04:38:40;;;;;;;16.42;11.73;;;17.20;99.90;;;;;;6246389;23;20063;-79
2022/09/07 04:41:09;;;;;;;12.23;9.07;;;17.20;99.90;;;;;;6246214;22;20024;-79
2022/09/07 04:43:37;;;;;;;12.95;8.70;;;17.10;99.90;;;;;;6246280;23;20023;-80
2022/09/07 04:46:06;;;;;;;10.52;8.38;;;17.10;99.90;;;;;;6246342;23;20015;-78
2022/09/07 04:48:32;;;;;;;11.30;8.82;;;17.10;99.90;;;;;;6246453;23;20012;-78
2022/09/07 04:51:08;;;;;;;13.38;9.50;;;17.00;99.90;;;;;;6247792;22;20087;-77
2022/09/07 04:53:36;;;;;;;13.98;8.68;;;17.00;99.90;;;;;;6246412;23;20016;-78
2022/09/07 04:56:02;;;;;;;12.35;8.63;;;16.90;99.90;;;;;;6246395;23;20056;-77
2022/09/07 04:58:28;;;;;;;15.02;9.45;;;16.90;99.90;;;;;;6246351;23;20433;-80
2022/09/07 05:00:54;;;;;;;13.80;8.95;;;16.90;99.90;;;;;;6251429;22;20011;-79
2022/09/07 05:03:19;;;;;;;14.63;9.32;;;16.90;99.90;;;;;;6250913;22;20020;-80
2022/09/07 05:05:45;;;;;;;13.63;9.60;;;16.90;99.90;;;;;;6250960;22;20090;-80
2022/09/07 05:08:12;;;;;;;17.20;10.38;;;16.90;99.90;;;;;;6251173;22;20083;-78
2022/09/07 05:10:38;;;;;;;14.75;8.50;;;16.90;99.90;;;;;;6225746;22;20065;-79
2022/09/07 05:13:04;;;;;;;16.90;9.73;;;16.90;99.90;;;;;;6250730;22;20012;-81
2022/09/07 05:15:29;;;;;;;15.02;9.32;;;16.90;99.90;;;;;;6251063;22;20015;-78
2022/09/07 05:17:56;;;;;;;17.17;9.23;;;16.90;99.90;;;;;;6251121;22;20018;-81
2022/09/07 05:20:23;;;;;;;14.60;9.23;;;17.00;99.90;;;;;;6250509;22;20016;-78
2022/09/07 05:22:58;;;;;;;18.67;11.00;;;17.00;99.90;;;;;;6250850;22;20081;-81
2022/09/07 05:25:28;;;;;;;19.83;11.25;;;17.00;99.90;;;;;;6250920;22;20073;-80
2022/09/07 05:27:54;;;;;;;17.20;10.95;;;17.00;99.90;;;;;;6251064;22;20011;-80
2022/09/07 05:30:20;;;;;;;17.67;9.93;;;17.00;99.90;;;;;;6251919;22;20074;-80
2022/09/07 05:32:45;;;;;;;14.57;9.38;;;17.00;99.90;;;;;;6278620;22;20011;-81
2022/09/07 05:35:11;;;;;;;14.57;9.63;;;17.00;99.90;;;;;;6250810;22;20023;-81
2022/09/07 05:37:37;;;;;;;13.60;9.15;;;17.00;99.90;;;;;;6250844;22;20024;-78
2022/09/07 05:40:03;;;;;;;16.88;10.48;;;17.00;99.90;;;;;;6251054;22;20051;-78
2022/09/07 05:42:30;;;;;;;13.40;8.70;;;17.00;99.90;;;;;;6277775;22;20050;-78
2022/09/07 05:44:56;;;;;;;17.17;9.63;;;17.00;99.90;;;;;;6250908;22;20575;-80
2022/09/07 05:47:21;;;;;;;14.73;9.48;;;17.00;99.90;;;;;;6278395;22;20062;-81
2022/09/07 05:49:47;;;;;;;17.60;11.48;;;16.90;99.90;;;;;;6278930;22;20130;-79
2022/09/07 05:52:13;;;;;;;16.75;11.18;;;17.00;99.90;;;;;;6250730;22;20011;-80
2022/09/07 05:54:39;;;;;;;17.40;11.35;;;17.00;99.90;;;;;;6250817;22;20054;-80
2022/09/07 05:57:06;;;;;;;19.45;11.05;;;17.00;99.90;;;;;;6225535;22;20011;-80
2022/09/07 05:59:32;;;;;;;19.67;12.20;;;17.00;99.90;;;;;;6250839;22;20091;-79
2022/09/07 06:01:57;;;;;;;20.45;12.00;;;17.00;99.90;;;;;;6245307;22;20330;-82
2022/09/07 06:04:23;;;;;;;17.10;11.10;;;17.00;99.90;;;;;;6245698;23;20008;-78
2022/09/07 06:06:49;;;;;;;20.05;12.25;;;17.00;99.90;;;;;;6245654;23;20046;-80
2022/09/07 06:09:14;;;;;;;15.25;10.82;;;17.00;99.90;;;;;;6246153;23;20104;-82
2022/09/07 06:11:40;;;;;;;18.83;11.40;;;17.10;99.90;;;;;;6246076;22;20456;-81
2022/09/07 06:14:06;;;;;;;19.27;12.00;;;17.10;99.90;;;;;;6245645;23;20020;-77
2022/09/07 06:16:33;;;;;;;22.77;13.88;;;17.10;99.90;;;;;;6245750;23;20031;-79
2022/09/07 06:19:04;;;;;;;17.02;10.07;;;17.10;99.90;;;;;;6245597;23;20102;-82
2022/09/07 06:21:33;;;;;;;19.73;11.15;;;17.10;99.90;;;;;;6245472;22;20016;-80
2022/09/07 06:23:58;;;;;;;19.95;11.65;;;17.10;99.90;;;;;;6221038;23;20441;-78
2022/09/07 06:26:24;;;;;;;21.45;13.30;;;17.10;99.90;;;;;;6253860;23;20012;-78
2022/09/07 06:28:49;;;;;;;29.63;14.02;;;17.10;99.90;;;;;;6255342;23;20012;-78
2022/09/07 06:31:17;;;;;;;20.85;12.50;;;17.10;99.90;;;;;;6255715;22;20388;-81
2022/09/07 06:33:44;;;;;;;22.45;12.98;;;17.20;99.90;;;;;;6246474;23;20350;-79
2022/09/07 06:36:12;;;;;;;22.50;13.70;;;17.20;99.90;;;;;;6246301;23;20023;-80
2022/09/07 06:38:38;;;;;;;29.45;16.45;;;17.30;99.90;;;;;;6245738;23;20389;-80
2022/09/07 06:41:13;;;;;;;27.42;16.70;;;17.30;99.90;;;;;;6245979;22;20012;-79
2022/09/07 06:43:39;;;;;;;28.33;16.30;;;17.40;99.90;;;;;;6247571;22;20456;-82
2022/09/07 06:46:05;;;;;;;28.33;15.88;;;17.30;99.90;;;;;;6245802;23;20051;-81
2022/09/07 06:48:31;;;;;;;31.48;18.33;;;17.40;99.90;;;;;;6245559;23;20019;-80
2022/09/07 06:51:03;;;;;;;31.33;17.88;;;17.40;99.90;;;;;;6245294;22;20129;-81
2022/09/07 06:53:33;;;;;;;31.33;17.77;;;17.40;99.90;;;;;;6220268;23;20016;-81
2022/09/07 06:56:00;;;;;;;35.03;19.63;;;17.50;99.90;;;;;;6245601;23;20020;-83
2022/09/07 06:58:26;;;;;;;35.63;19.08;;;17.50;99.90;;;;;;6245677;23;20044;-80
2022/09/07 07:00:53;;;;;;;34.70;19.27;;;17.50;99.90;;;;;;6245359;22;20039;-80
2022/09/07 07:03:19;;;;;;;33.10;19.30;;;17.50;99.90;;;;;;6245385;23;20020;-80
2022/09/07 07:05:55;;;;;;;34.75;20.75;;;17.50;99.90;;;;;;6245196;23;20468;-78
2022/09/07 07:08:24;;;;;;;37.90;20.55;;;17.50;99.90;;;;;;6245416;23;20020;-77
2022/09/07 07:10:50;;;;;;;33.85;19.73;;;17.60;99.90;;;;;;6247136;22;20008;-77
2022/09/07 07:13:17;;;;;;;34.40;18.35;;;17.60;99.90;;;;;;6245371;23;20040;-82
2022/09/07 07:15:43;;;;;;;29.05;17.90;;;17.60;99.90;;;;;;6245286;23;20016;-81
2022/09/07 07:18:09;;;;;;;32.65;20.23;;;17.60;99.90;;;;;;6245893;23;20020;-80
2022/09/07 07:20:37;;;;;;;35.05;20.27;;;17.60;99.90;;;;;;6244708;22;20025;-79
2022/09/07 07:23:03;;;;;;;31.73;19.63;;;17.60;99.90;;;;;;6245254;23;20012;-78
2022/09/07 07:25:29;;;;;;;34.33;20.75;;;17.60;99.90;;;;;;6245018;23;20013;-80
2022/09/07 07:27:54;;;;;;;38.72;23.98;;;17.70;99.90;;;;;;6245104;23;20011;-80
2022/09/07 07:30:20;;;;;;;35.47;21.58;;;17.70;99.90;;;;;;6246780;22;20043;-80
2022/09/07 07:32:46;;;;;;;44.80;27.95;;;17.70;99.90;;;;;;6246881;23;20094;-79
2022/09/07 07:35:13;;;;;;;35.45;21.27;;;17.80;99.90;;;;;;6245267;23;20012;-80
2022/09/07 07:37:39;;;;;;;37.53;22.02;;;17.70;99.90;;;;;;6245217;23;20012;-80
2022/09/07 07:40:07;;;;;;;35.97;22.77;;;17.70;99.90;;;;;;6220423;23;20016;-81
2022/09/07 07:42:34;;;;;;;32.83;21.70;;;17.70;99.90;;;;;;6244708;22;20016;-80
2022/09/07 07:45:01;;;;;;;32.10;20.33;;;17.70;99.90;;;;;;6244670;23;20020;-81
2022/09/07 07:47:27;;;;;;;29.95;19.17;;;17.70;99.90;;;;;;6245261;23;20012;-81
2022/09/07 07:49:53;;;;;;;26.60;16.58;;;17.70;99.90;;;;;;6244720;23;20438;-79
2022/09/07 07:52:19;;;;;;;30.02;18.88;;;17.70;99.90;;;;;;6246553;22;20010;-81
2022/09/07 07:54:45;;;;;;;28.35;18.48;;;17.80;99.90;;;;;;6244740;23;20319;-82
2022/09/07 07:57:10;;;;;;;29.25;18.80;;;17.80;99.90;;;;;;6244701;23;20083;-80
2022/09/07 07:59:37;;;;;;;28.30;17.73;;;17.80;99.90;;;;;;6244584;23;20016;-79
2022/09/07 08:02:09;;;;;;;29.13;18.27;;;17.90;99.90;;;;;;6268841;22;20019;-78
2022/09/07 08:04:35;;;;;;;24.92;16.55;;;17.90;99.90;;;;;;6251284;22;20146;-79
2022/09/07 08:07:01;;;;;;;27.50;18.35;;;18.00;99.90;;;;;;6250231;22;20039;-77
2022/09/07 08:09:27;;;;;;;27.73;16.90;;;17.90;99.90;;;;;;6249851;22;20015;-87
2022/09/07 08:11:54;;;;;;;29.25;17.15;;;18.00;99.90;;;;;;6278056;22;20012;-86
2022/09/07 08:14:20;;;;;;;27.17;17.00;;;17.90;99.90;;;;;;6277482;22;20382;-85
2022/09/07 08:16:46;;;;;;;25.73;17.50;;;17.90;99.90;;;;;;6252458;22;20339;-82
2022/09/07 08:19:12;;;;;;;22.98;15.95;;;17.90;99.90;;;;;;6276983;22;20018;-82
2022/09/07 08:21:37;;;;;;;25.80;17.05;;;18.00;99.90;;;;;;6249802;22;20020;-80
2022/09/07 08:24:04;;;;;;;27.65;17.75;;;18.00;99.90;;;;;;6276890;22;20047;-80
2022/09/07 08:26:29;;;;;;;22.38;16.05;;;18.00;99.90;;;;;;6277121;22;20019;-77
2022/09/07 08:28:55;;;;;;;27.15;18.05;;;18.00;99.90;;;;;;6275238;22;20008;-78
2022/09/07 08:31:21;;;;;;;31.75;20.20;;;18.10;99.90;;;;;;6224218;22;20503;-81
2022/09/07 08:33:47;;;;;;;39.85;23.42;;;18.10;99.90;;;;;;6249643;22;20378;-78
2022/09/07 08:36:18;;;;;;;34.53;19.42;;;18.00;99.90;;;;;;6224611;22;20050;-78
2022/09/07 08:38:44;;;;;;;34.55;21.38;;;18.10;99.90;;;;;;6226583;22;20023;-82
2022/09/07 08:41:38;;;;;;;35.90;21.00;;;18.20;99.90;;;;;;6251532;22;20510;-80
2022/09/07 08:44:11;;;;;;;31.83;20.88;;;18.20;99.90;;;;;;6251459;22;20012;-78
2022/09/07 08:47:06;;;;;;;30.00;18.35;;;18.30;99.90;;;;;;6226130;22;20015;-80
2022/09/07 08:49:37;;;;;;;25.92;18.10;;;18.40;99.90;;;;;;6251672;22;20022;-79
2022/09/07 08:52:13;;;;;;;29.80;18.52;;;18.40;99.90;;;;;;6251364;22;20008;-80
2022/09/07 08:54:42;;;;;;;24.48;15.73;;;18.50;99.90;;;;;;6251424;22;20012;-80
2022/09/07 08:57:08;;;;;;;17.45;12.38;;;18.50;99.90;;;;;;6251585;22;20406;-78
2022/09/07 08:59:53;;;;;;;16.65;11.02;;;18.60;99.90;;;;;;6251353;22;20016;-80
2022/09/07 09:02:18;;;;;;;15.63;10.90;;;18.50;99.90;;;;;;6245980;22;20016;-80
2022/09/07 09:04:44;;;;;;;16.15;10.27;;;18.50;99.90;;;;;;6246999;23;20091;-79
2022/09/07 09:07:13;;;;;;;14.52;9.73;;;18.60;99.90;;;;;;6220826;23;20091;-82
2022/09/07 09:09:47;;;;;;;14.25;9.50;;;18.60;99.90;;;;;;6247572;22;20398;-78
2022/09/07 09:12:32;;;;;;;11.80;9.30;;;18.60;99.90;;;;;;6245933;22;20020;-80
2022/09/07 09:15:13;;;;;;;13.35;8.57;;;18.60;99.90;;;;;;6246143;23;20060;-82
2022/09/07 09:17:46;;;;;;;11.52;7.63;;;18.60;99.90;;;;;;6271864;22;20012;-80
2022/09/07 09:20:39;;;;;;;10.85;7.32;;;18.60;99.90;;;;;;6246041;23;20019;-81
2022/09/07 09:23:17;;;;;;;10.60;7.97;;;18.70;99.90;;;;;;6246038;23;20012;-79
2022/09/07 09:25:55;;;;;;;12.35;7.35;;;18.70;99.90;;;;;;6246085;23;20016;-79
2022/09/07 09:28:22;;;;;;;10.43;7.32;;;18.90;99.90;;;;;;6246068;23;20012;-79
2022/09/07 09:30:48;;;;;;;9.57;6.90;;;19.10;99.90;;;;;;6245894;22;20061;-79
2022/09/07 09:33:24;;;;;;;9.70;6.72;;;19.10;99.90;;;;;;6220609;23;20346;-82
2022/09/07 09:35:52;;;;;;;10.10;6.63;;;19.20;99.90;;;;;;6245738;23;20393;-81
2022/09/07 09:38:34;;;;;;;10.77;6.78;;;19.20;99.90;;;;;;6245907;23;20023;-81
2022/09/07 09:41:17;;;;;;;8.68;6.30;;;19.20;99.90;;;;;;6245386;22;20020;-80
2022/09/07 09:43:57;;;;;;;8.85;6.07;;;19.20;99.90;;;;;;6245378;23;20385;-79
2022/09/07 09:46:33;;;;;;;8.55;6.03;;;19.20;99.90;;;;;;6247013;23;20433;-83
2022/09/07 09:49:14;;;;;;;10.45;6.75;;;19.20;99.90;;;;;;6245792;23;20008;-79
2022/09/07 09:51:44;;;;;;;9.35;6.60;;;19.20;99.90;;;;;;6245396;22;20011;-81
2022/09/07 09:54:25;;;;;;;10.85;6.22;;;19.20;99.90;;;;;;6245350;23;20016;-82
2022/09/07 09:56:51;;;;;;;9.20;6.50;;;19.20;99.90;;;;;;6245746;23;20453;-81
2022/09/07 09:59:17;;;;;;;7.82;5.60;;;19.20;99.90;;;;;;6245617;23;20016;-81
2022/09/07 10:01:45;;;;;;;6.88;5.40;;;19.30;99.90;;;;;;6245470;22;20020;-80
2022/09/07 10:04:22;;;;;;;6.05;4.30;;;19.40;99.90;;;;;;6246481;23;20013;-79
2022/09/07 10:07:07;;;;;;;9.18;5.30;;;19.40;99.90;;;;;;6245594;23;20013;-81
2022/09/07 10:09:41;;;;;;;5.95;4.43;;;19.40;99.90;;;;;;6247218;22;20011;-84
2022/09/07 10:12:38;;;;;;;6.45;4.55;;;19.50;99.90;;;;;;6245751;22;20019;-80
2022/09/07 10:15:06;;;;;;;7.60;4.13;;;19.60;99.90;;;;;;6244604;23;20008;-80
2022/09/07 10:17:40;;;;;;;5.28;4.03;;;19.80;99.90;;;;;;6245624;23;20008;-83
2022/09/07 10:20:14;;;;;;;4.72;3.88;;;19.80;99.90;;;;;;6245854;23;20377;-85
2022/09/07 10:22:43;;;;;;;6.22;3.88;;;19.90;99.90;;;;;;6245643;23;20016;-81
2022/09/07 10:25:38;;;;;;;6.78;4.30;;;19.90;99.90;;;;;;6247609;22;20032;-83
2022/09/07 10:28:22;;;;;;;6.40;4.15;;;19.90;99.90;;;;;;6245735;23;20516;-80
2022/09/07 10:31:15;;;;;;;5.00;3.70;;;20.00;99.90;;;;;;6247573;22;20009;-79
2022/09/07 10:34:06;;;;;;;5.68;3.30;;;20.10;99.90;;;;;;6238313;22;20023;-80
2022/09/07 10:36:46;;;;;;;6.07;2.90;;;20.40;99.90;;;;;;6245706;23;20442;-86
2022/09/07 10:39:16;;;;;;;4.50;2.70;;;20.80;99.90;;;;;;6220331;23;20020;-80
2022/09/07 10:41:42;;;;;;;5.70;2.33;;;21.10;99.90;;;;;;6247562;22;20410;-79
2022/09/07 10:44:21;;;;;;;4.78;2.20;;;21.20;99.90;;;;;;6246684;23;20147;-83
2022/09/07 10:47:26;;;;;;;6.88;2.42;;;21.40;99.90;;;;;;6245840;23;20020;-77
2022/09/07 10:50:02;;;;;;;5.78;2.22;;;21.30;99.90;;;;;;6245814;23;20019;-81
2022/09/07 10:52:59;;;;;;;2.60;1.77;;;21.50;99.90;;;;;;6247602;22;20081;-82
2022/09/07 10:55:31;;;;;;;4.38;2.20;;;21.60;99.90;;;;;;6233950;23;20020;-82
2022/09/07 10:58:24;;;;;;;3.40;2.30;;;21.60;99.90;;;;;;6247464;22;20058;-84
2022/09/07 11:00:59;;;;;;;3.83;2.53;;;21.50;99.90;;;;;;6253205;22;20010;-79
2022/09/07 11:03:34;;;;;;;;;;;21.30;99.90;;;;;;6250638;22;20019;-85
2022/09/07 11:06:09;;;;;;;7.88;2.72;;;21.20;99.90;;;;;;6250465;22;20324;-83
2022/09/07 11:08:52;;;;;;;;;;;21.10;99.90;;;;;;6250256;22;20039;-77
2022/09/07 11:12:07;;;;;;;;;;;;;;;;;;;;;
2022/09/07 11:14:42;;;;;;;3.88;2.63;;;21.00;99.90;;;;;;6249283;22;20012;-86
2022/09/07 11:17:22;;;;;;;4.72;2.20;;;21.00;99.90;;;;;;6253270;22;20072;-88
2022/09/07 11:19:57;;;;;;;2.97;2.10;;;20.90;99.90;;;;;;6249838;22;20012;-82
2022/09/07 11:22:32;;;;;;;3.28;2.00;;;21.00;99.90;;;;;;6248398;22;20011;-86
2022/09/07 11:25:13;;;;;;;;;;;21.30;99.90;;;;;;6251080;22;20528;-83
2022/09/07 11:27:44;;;;;;;5.10;1.77;;;21.30;99.90;;;;;;6250308;22;19918;-82
2022/09/07 11:30:42;;;;;;;3.63;1.80;;;21.40;99.90;;;;;;6226709;22;20309;-82
2022/09/07 11:33:11;;;;;;;9.48;2.33;;;21.50;99.90;;;;;;6228297;22;20012;-84
2022/09/07 11:35:54;;;;;;;2.83;1.77;;;21.70;99.90;;;;;;6226395;22;20085;-86
2022/09/07 11:38:45;;;;;;;3.22;1.83;;;21.90;99.90;;;;;;6224902;22;20054;-83
2022/09/07 11:41:25;;;;;;;2.95;1.80;;;22.10;99.90;;;;;;6255395;22;20098;-85
2022/09/07 11:44:20;;;;;;;2.95;2.20;;;22.40;99.90;;;;;;6225461;22;20023;-83
2022/09/07 11:46:56;;;;;;;4.85;1.98;;;22.60;99.90;;;;;;6276995;22;20023;-82
2022/09/07 11:49:27;;;;;;;4.70;1.90;;;22.60;99.90;;;;;;6276995;22;20061;-83
2022/09/07 11:52:08;;;;;;;4.10;1.83;;;22.50;99.90;;;;;;6224285;22;20015;-84
2022/09/07 11:54:57;;;;;;;2.45;1.63;;;22.40;99.90;;;;;;6249568;22;20020;-81
2022/09/07 11:57:31;;;;;;;3.03;1.80;;;22.40;99.90;;;;;;6249804;22;20137;-83
2022/09/07 12:00:19;;;;;;;3.22;1.90;;;22.60;99.90;;;;;;6276358;22;20012;-80
2022/09/07 12:03:17;;;;;;;4.50;1.83;;;22.80;99.90;;;;;;6245900;23;20012;-80
2022/09/07 12:06:01;;;;;;;3.58;2.10;;;23.00;99.90;;;;;;6218926;23;20496;-80
2022/09/07 12:08:45;;;;;;;3.20;1.80;;;23.30;99.90;;;;;;6246304;23;20009;-83
2022/09/07 12:11:30;;;;;;;2.75;1.80;;;23.10;99.90;;;;;;6217429;23;20012;-82
2022/09/07 12:14:02;;;;;;;2.83;1.60;;;23.00;99.90;;;;;;6248595;23;20058;-82
2022/09/07 12:16:30;;;;;;;2.83;1.80;;;23.00;99.90;;;;;;6248641;23;20031;-82
2022/09/07 12:19:12;;;;;;;2.97;1.70;;;23.10;99.90;;;;;;6221788;23;20045;-83
2022/09/07 12:21:54;;;;;;;2.78;1.80;;;22.90;99.90;;;;;;6221614;23;20016;-83
2022/09/07 12:24:50;;;;;;;3.67;1.88;;;22.80;99.90;;;;;;6221837;23;20023;-82
2022/09/07 12:27:18;;;;;;;3.47;2.47;;;22.80;99.90;;;;;;6221318;23;20106;-81
2022/09/07 12:29:46;;;;;;;4.80;2.60;;;22.80;99.90;;;;;;6221602;23;20012;-82
2022/09/07 12:32:12;;;;;;;5.18;2.67;;;23.10;99.90;;;;;;6221454;23;20318;-84
2022/09/07 12:34:51;;;;;;;5.00;2.10;;;23.00;99.90;;;;;;6221849;23;20315;-81
2022/09/07 12:37:25;;;;;;;3.13;2.15;;;23.10;99.90;;;;;;6249034;23;20027;-83
2022/09/07 12:40:29;;;;;;;3.97;2.50;;;23.30;99.90;;;;;;6196470;23;20341;-81
2022/09/07 12:43:13;;;;;;;3.85;2.50;;;23.30;99.90;;;;;;6248053;23;20012;-84
2022/09/07 12:45:49;;;;;;;4.32;2.65;;;23.60;99.90;;;;;;6197060;23;20016;-81
2022/09/07 12:48:14;;;;;;;4.68;2.35;;;23.70;99.90;;;;;;6221666;23;20008;-81
2022/09/07 12:50:43;;;;;;;5.13;2.50;;;23.50;99.90;;;;;;6221545;23;20199;-81
2022/09/07 12:53:45;;;;;;;5.63;2.30;;;23.10;99.90;;;;;;6221355;23;20020;-80
2022/09/07 12:56:35;;;;;;;4.43;2.67;;;23.10;99.90;;;;;;6222329;23;20414;-83
2022/09/07 12:59:07;;;;;;;3.78;2.10;;;23.10;99.90;;;;;;6221439;23;20081;-83
2022/09/07 13:01:33;;;;;;;3.22;2.30;;;23.40;99.90;;;;;;6232003;23;20046;-79
2022/09/07 13:04:10;;;;;;;3.38;2.10;;;23.50;99.90;;;;;;6221820;23;20050;-80
2022/09/07 13:06:57;;;;;;;3.08;2.15;;;23.70;99.90;;;;;;6246878;23;20016;-80
2022/09/07 13:09:38;;;;;;;3.20;1.88;;;23.70;99.90;;;;;;6221186;23;20312;-84
2022/09/07 13:12:31;;;;;;;3.13;1.92;;;23.50;99.90;;;;;;6247564;22;20016;-85
2022/09/07 13:14:58;;;;;;;3.22;1.90;;;23.60;99.90;;;;;;6247028;23;20016;-80
2022/09/07 13:17:26;;;;;;;3.40;2.42;;;23.90;99.90;;;;;;6246703;23;20066;-80
2022/09/07 13:19:52;;;;;;;5.65;2.50;;;24.00;99.90;;;;;;6246779;23;20012;-80
2022/09/07 13:22:41;;;;;;;3.63;2.40;;;23.90;99.90;;;;;;6222035;23;20516;-84
2022/09/07 13:25:20;;;;;;;4.55;1.98;;;23.80;99.90;;;;;;6246222;23;20054;-80
2022/09/07 13:28:01;;;;;;;2.80;2.20;;;23.80;99.90;;;;;;6247068;23;20063;-86
2022/09/07 13:30:52;;;;;;;5.10;2.40;;;23.90;99.90;;;;;;6246265;22;20012;-79
2022/09/07 13:33:24;;;;;;;3.47;2.40;;;23.80;99.90;;;;;;6246014;23;20039;-81
2022/09/07 13:36:04;;;;;;;4.28;2.38;;;23.70;99.90;;;;;;6246235;23;20016;-79
2022/09/07 13:38:32;;;;;;;3.67;2.33;;;23.40;99.90;;;;;;6247842;22;20344;-83
2022/09/07 13:41:05;;;;;;;3.72;2.10;;;23.20;99.90;;;;;;6248527;22;20015;-77
2022/09/07 13:43:30;;;;;;;4.05;2.17;;;23.20;99.90;;;;;;6246546;23;20051;-82
2022/09/07 13:46:05;;;;;;;5.22;2.28;;;23.10;99.90;;;;;;6246595;23;20516;-83
2022/09/07 13:48:40;;;;;;;3.28;2.03;;;23.00;99.90;;;;;;6247217;23;20012;-81
2022/09/07 13:51:08;;;;;;;;;;;23.00;99.90;;;;;;6246988;22;20020;-82
2022/09/07 13:53:55;;;;;;;5.32;2.40;;;23.10;99.90;;;;;;6246248;23;19920;-85
2022/09/07 13:56:33;;;;;;;5.00;2.45;;;23.20;99.90;;;;;;6248263;23;20074;-83
2022/09/07 13:59:22;;;;;;;3.72;2.55;;;23.20;99.90;;;;;;6247839;22;20307;-80
2022/09/07 14:01:49;;;;;;;4.35;2.30;;;23.10;99.90;;;;;;6245586;22;20348;-84
2022/09/07 14:04:40;;;;;;;4.38;2.08;;;23.00;99.90;;;;;;6245928;23;20023;-82
2022/09/07 14:07:20;;;;;;;5.38;2.53;;;23.00;99.90;;;;;;6232206;23;20477;-80
2022/09/07 14:09:49;;;;;;;4.32;2.55;;;23.10;99.90;;;;;;6246041;23;20008;-80
2022/09/07 14:12:20;;;;;;;5.60;2.88;;;23.20;99.90;;;;;;6247190;22;20468;-85
2022/09/07 14:15:06;;;;;;;4.85;2.92;;;23.40;99.90;;;;;;6246549;23;20016;-79
2022/09/07 14:17:32;;;;;;;5.18;2.78;;;23.50;99.90;;;;;;6245967;23;20016;-81
2022/09/07 14:19:58;;;;;;;5.28;2.70;;;23.50;99.90;;;;;;6247220;23;20043;-83
2022/09/07 14:22:33;;;;;;;4.70;3.00;;;23.40;99.90;;;;;;6245698;22;20022;-83
2022/09/07 14:25:01;;;;;;;5.70;2.80;;;23.50;99.90;;;;;;6245726;23;20018;-82
2022/09/07 14:27:34;;;;;;;4.70;2.90;;;23.60;99.90;;;;;;6245670;23;20242;-84
2022/09/07 14:30:27;;;;;;;6.07;2.95;;;23.60;99.90;;;;;;6245521;23;20019;-84
2022/09/07 14:33:00;;;;;;;4.13;2.90;;;23.40;99.90;;;;;;6245725;23;20016;-85
2022/09/07 14:35:31;;;;;;;4.25;2.53;;;23.30;99.90;;;;;;6245291;23;20024;-85
2022/09/07 14:38:19;;;;;;;4.72;2.33;;;23.20;99.90;;;;;;6245825;23;20020;-84
2022/09/07 14:40:45;;;;;;;4.15;2.47;;;23.10;99.90;;;;;;6244592;22;20048;-81
2022/09/07 14:43:29;;;;;;;4.10;2.20;;;23.00;99.90;;;;;;6245715;23;20015;-80
2022/09/07 14:46:23;;;;;;;4.03;2.42;;;23.00;99.90;;;;;;6246703;23;20043;-81
2022/09/07 14:48:55;;;;;;;4.60;2.47;;;23.00;99.90;;;;;;6247836;22;20004;-84
2022/09/07 14:51:22;;;;;;;3.35;2.17;;;23.00;99.90;;;;;;6246100;23;20070;-82
2022/09/07 14:53:51;;;;;;;4.85;2.13;;;22.90;99.90;;;;;;6245700;23;20031;-85
2022/09/07 14:56:30;;;;;;;4.15;2.40;;;22.90;99.90;;;;;;6245678;23;20327;-83
2022/09/07 14:58:56;;;;;;;6.18;3.22;;;22.90;99.90;;;;;;6221077;23;20016;-83
2022/09/07 15:01:24;;;;;;;4.35;2.60;;;22.90;99.90;;;;;;6245351;22;20091;-82
2022/09/07 15:03:52;;;;;;;3.72;2.30;;;22.90;99.90;;;;;;6245534;23;20342;-78
2022/09/07 15:06:41;;;;;;;3.67;2.50;;;22.90;99.90;;;;;;6245585;23;20018;-83
2022/09/07 15:09:26;;;;;;;4.82;2.75;;;23.00;99.90;;;;;;6245993;23;20016;-83
2022/09/07 15:12:21;;;;;;;6.03;3.40;;;23.20;99.90;;;;;;6247739;22;20012;-84
2022/09/07 15:14:47;;;;;;;4.70;2.60;;;23.30;99.90;;;;;;6244891;23;20027;-80
2022/09/07 15:17:29;;;;;;;5.85;2.72;;;23.40;99.90;;;;;;6247937;23;20012;-82
2022/09/07 15:19:55;;;;;;;6.15;2.92;;;23.60;99.90;;;;;;6248456;22;20363;-82
2022/09/07 15:22:21;;;;;;;6.47;3.25;;;23.60;99.90;;;;;;6249620;22;20015;-83
2022/09/07 15:24:47;;;;;;;6.32;2.65;;;23.70;99.90;;;;;;6248829;22;20016;-81
2022/09/07 15:27:25;;;;;;;4.93;2.60;;;23.80;99.90;;;;;;6249642;22;20012;-85
2022/09/07 15:29:51;;;;;;;5.70;3.13;;;23.90;99.90;;;;;;6252301;23;20039;-79
2022/09/07 15:32:17;;;;;;;6.50;3.00;;;23.90;99.90;;;;;;6258199;22;20031;-81
2022/09/07 15:34:43;;;;;;;6.03;3.10;;;23.90;99.90;;;;;;6256117;23;20016;-80
2022/09/07 15:37:09;;;;;;;7.07;3.35;;;24.00;99.90;;;;;;6255160;23;20016;-79
2022/09/07 15:39:34;;;;;;;5.15;3.35;;;23.90;99.90;;;;;;6225432;23;20449;-85
2022/09/07 15:42:00;;;;;;;7.18;3.17;;;23.70;99.90;;;;;;6253492;22;20016;-82
2022/09/07 15:44:26;;;;;;;6.03;3.28;;;23.60;99.90;;;;;;6249432;23;20024;-79
2022/09/07 15:46:52;;;;;;;7.40;3.50;;;23.50;99.90;;;;;;6247877;23;20069;-79
2022/09/07 15:49:18;;;;;;;10.95;3.30;;;23.40;99.90;;;;;;6247852;23;20020;-82
2022/09/07 15:51:44;;;;;;;4.65;2.65;;;23.30;99.90;;;;;;6247365;22;20346;-82
2022/09/07 15:54:14;;;;;;;7.50;3.20;;;23.30;99.90;;;;;;6247087;23;20016;-83
2022/09/07 15:56:41;;;;;;;4.93;3.17;;;23.20;99.90;;;;;;6220854;23;20438;-81
2022/09/07 15:59:08;;;;;;;5.40;2.90;;;23.20;99.90;;;;;;6220469;23;20078;-81
2022/09/07 16:01:34;;;;;;;4.93;3.00;;;23.20;99.90;;;;;;6219352;23;20094;-80
2022/09/07 16:04:00;;;;;;;6.75;3.70;;;23.10;99.90;;;;;;6246147;23;20071;-88
2022/09/07 16:06:26;;;;;;;7.10;3.67;;;23.10;99.90;;;;;;6247042;23;20498;-81
2022/09/07 16:08:52;;;;;;;6.45;3.30;;;23.10;99.90;;;;;;6246965;23;20012;-82